sensor_id;sensor_type;location;lat;lon;timestamp;pressure;altitude;pressure_sealevel;temperature;humidity
21300;BME280;10809;49.476;11.016;2023-07-13T00:02:08;98033.97;;;25.06;35.05
21300;BME280;10809;49.476;11.016;2023-07-13T00:04:38;98023.50;;;25.03;35.10
21300;BME280;10809;49.476;11.016;2023-07-13T00:07:09;98030.78;;;25.02;35.16
21300;BME280;10809;49.476;11.016;2023-07-13T00:09:40;98030.97;;;25.01;35.22
21300;BME280;10809;49.476;11.016;2023-07-13T00:12:33;98017.78;;;24.98;35.23
21300;BME280;10809;49.476;11.016;2023-07-13T00:15:08;98004.41;;;24.96;35.24
21300;BME280;10809;49.476;11.016;2023-07-13T00:17:44;98002.91;;;24.94;35.05
21300;BME280;10809;49.476;11.016;2023-07-13T00:20:15;98000.41;;;24.92;35.34
21300;BME280;10809;49.476;11.016;2023-07-13T00:22:52;97999.72;;;24.90;35.22
21300;BME280;10809;49.476;11.016;2023-07-13T00:25:26;97996.34;;;24.88;35.33
21300;BME280;10809;49.476;11.016;2023-07-13T00:27:58;97987.72;;;24.85;35.37
21300;BME280;10809;49.476;11.016;2023-07-13T00:30:29;98003.13;;;24.84;35.44
21300;BME280;10809;49.476;11.016;2023-07-13T00:33:02;97995.38;;;24.81;35.59
21300;BME280;10809;49.476;11.016;2023-07-13T00:35:39;98008.06;;;24.80;35.38
21300;BME280;10809;49.476;11.016;2023-07-13T00:38:10;98015.56;;;24.78;35.56
21300;BME280;10809;49.476;11.016;2023-07-13T00:40:40;98016.72;;;24.76;35.70
21300;BME280;10809;49.476;11.016;2023-07-13T00:43:18;98005.41;;;24.72;35.54
21300;BME280;10809;49.476;11.016;2023-07-13T00:48:32;98024.91;;;24.68;35.84
21300;BME280;10809;49.476;11.016;2023-07-13T00:51:07;98024.28;;;24.66;35.70
21300;BME280;10809;49.476;11.016;2023-07-13T00:53:47;98030.22;;;24.61;35.88
21300;BME280;10809;49.476;11.016;2023-07-13T00:56:18;98038.34;;;24.61;35.59
21300;BME280;10809;49.476;11.016;2023-07-13T00:58:49;98042.41;;;24.57;35.58
21300;BME280;10809;49.476;11.016;2023-07-13T01:01:23;98041.09;;;24.53;35.62
21300;BME280;10809;49.476;11.016;2023-07-13T01:03:54;98037.06;;;24.49;35.71
21300;BME280;10809;49.476;11.016;2023-07-13T01:06:24;98032.03;;;24.46;36.01
21300;BME280;10809;49.476;11.016;2023-07-13T01:08:56;98034.06;;;24.44;35.97
21300;BME280;10809;49.476;11.016;2023-07-13T01:11:29;98037.13;;;24.41;35.78
21300;BME280;10809;49.476;11.016;2023-07-13T01:14:07;98039.34;;;24.38;35.82
21300;BME280;10809;49.476;11.016;2023-07-13T01:16:39;98035.13;;;24.35;35.97
21300;BME280;10809;49.476;11.016;2023-07-13T01:22:17;98021.47;;;24.29;35.85
21300;BME280;10809;49.476;11.016;2023-07-13T01:24:48;98028.94;;;24.27;36.12
21300;BME280;10809;49.476;11.016;2023-07-13T01:27:25;98030.25;;;24.23;36.13
21300;BME280;10809;49.476;11.016;2023-07-13T01:29:56;98028.75;;;24.20;35.86
21300;BME280;10809;49.476;11.016;2023-07-13T01:32:33;98030.78;;;24.18;36.18
21300;BME280;10809;49.476;11.016;2023-07-13T01:35:04;98030.28;;;24.15;36.21
21300;BME280;10809;49.476;11.016;2023-07-13T01:37:35;98036.06;;;24.12;36.08
21300;BME280;10809;49.476;11.016;2023-07-13T01:40:06;98026.63;;;24.08;36.46
21300;BME280;10809;49.476;11.016;2023-07-13T01:42:38;98033.22;;;24.05;36.45
21300;BME280;10809;49.476;11.016;2023-07-13T01:45:09;98023.75;;;24.01;36.41
21300;BME280;10809;49.476;11.016;2023-07-13T01:47:39;98015.34;;;23.96;36.29
21300;BME280;10809;49.476;11.016;2023-07-13T01:50:13;98013.00;;;23.93;36.55
21300;BME280;10809;49.476;11.016;2023-07-13T01:52:43;98021.47;;;23.90;36.45
21300;BME280;10809;49.476;11.016;2023-07-13T01:55:14;98018.09;;;23.88;36.57
21300;BME280;10809;49.476;11.016;2023-07-13T01:57:45;98024.88;;;23.84;36.40
21300;BME280;10809;49.476;11.016;2023-07-13T02:00:17;98026.22;;;23.80;36.43
21300;BME280;10809;49.476;11.016;2023-07-13T02:02:51;98029.28;;;23.77;36.56
21300;BME280;10809;49.476;11.016;2023-07-13T02:05:22;98037.91;;;23.73;36.41
21300;BME280;10809;49.476;11.016;2023-07-13T02:07:52;98033.88;;;23.69;36.64
21300;BME280;10809;49.476;11.016;2023-07-13T02:10:23;98039.63;;;23.66;36.49
21300;BME280;10809;49.476;11.016;2023-07-13T02:12:56;98037.44;;;23.61;36.41
21300;BME280;10809;49.476;11.016;2023-07-13T02:15:27;98035.06;;;23.58;36.78
21300;BME280;10809;49.476;11.016;2023-07-13T02:18:01;98035.59;;;23.54;36.51
21300;BME280;10809;49.476;11.016;2023-07-13T02:20:31;98030.69;;;23.49;36.65
21300;BME280;10809;49.476;11.016;2023-07-13T02:23:01;98033.75;;;23.46;36.82
21300;BME280;10809;49.476;11.016;2023-07-13T02:25:32;98032.38;;;23.42;36.99
21300;BME280;10809;49.476;11.016;2023-07-13T02:28:03;98031.06;;;23.38;36.65
21300;BME280;10809;49.476;11.016;2023-07-13T02:30:34;98030.72;;;23.33;36.72
21300;BME280;10809;49.476;11.016;2023-07-13T02:33:08;98032.09;;;23.29;36.71
21300;BME280;10809;49.476;11.016;2023-07-13T02:35:42;98046.09;;;23.25;36.81
21300;BME280;10809;49.476;11.016;2023-07-13T02:38:18;98041.06;;;23.22;36.94
21300;BME280;10809;49.476;11.016;2023-07-13T02:40:49;98042.38;;;23.17;36.54
21300;BME280;10809;49.476;11.016;2023-07-13T02:43:22;98042.06;;;23.13;36.73
21300;BME280;10809;49.476;11.016;2023-07-13T02:45:53;98051.69;;;23.07;36.92
21300;BME280;10809;49.476;11.016;2023-07-13T02:48:23;98048.50;;;23.03;36.80
21300;BME280;10809;49.476;11.016;2023-07-13T02:50:55;98047.13;;;22.99;36.85
21300;BME280;10809;49.476;11.016;2023-07-13T02:53:25;98048.44;;;22.95;36.98
21300;BME280;10809;49.476;11.016;2023-07-13T02:55:56;98056.03;;;22.92;37.22
21300;BME280;10809;49.476;11.016;2023-07-13T02:58:26;98069.88;;;22.89;37.33
21300;BME280;10809;49.476;11.016;2023-07-13T03:01:07;98064.00;;;22.85;37.37
21300;BME280;10809;49.476;11.016;2023-07-13T03:03:38;98067.84;;;22.83;37.42
21300;BME280;10809;49.476;11.016;2023-07-13T03:06:09;98057.38;;;22.80;37.43
21300;BME280;10809;49.476;11.016;2023-07-13T03:08:47;98072.94;;;22.78;37.15
21300;BME280;10809;49.476;11.016;2023-07-13T03:11:20;98080.50;;;22.74;37.51
21300;BME280;10809;49.476;11.016;2023-07-13T03:14:00;98079.16;;;22.70;37.20
21300;BME280;10809;49.476;11.016;2023-07-13T03:16:34;98087.59;;;22.67;37.55
21300;BME280;10809;49.476;11.016;2023-07-13T03:19:05;98090.59;;;22.64;37.18
21300;BME280;10809;49.476;11.016;2023-07-13T03:21:36;98092.81;;;22.61;37.49
21300;BME280;10809;49.476;11.016;2023-07-13T03:24:10;98096.81;;;22.57;37.37
21300;BME280;10809;49.476;11.016;2023-07-13T03:26:40;98105.41;;;22.52;37.64
21300;BME280;10809;49.476;11.016;2023-07-13T03:29:10;98103.22;;;22.48;37.25
21300;BME280;10809;49.476;11.016;2023-07-13T03:31:41;98102.72;;;22.44;37.36
21300;BME280;10809;49.476;11.016;2023-07-13T03:34:15;98111.31;;;22.40;37.21
21300;BME280;10809;49.476;11.016;2023-07-13T03:36:46;98117.03;;;22.37;37.22
21300;BME280;10809;49.476;11.016;2023-07-13T03:39:20;98129.13;;;22.33;37.71
21300;BME280;10809;49.476;11.016;2023-07-13T03:41:54;98128.44;;;22.31;37.29
21300;BME280;10809;49.476;11.016;2023-07-13T03:44:24;98125.91;;;22.29;37.59
21300;BME280;10809;49.476;11.016;2023-07-13T03:46:58;98135.16;;;22.27;37.79
21300;BME280;10809;49.476;11.016;2023-07-13T03:49:29;98133.63;;;22.24;37.38
21300;BME280;10809;49.476;11.016;2023-07-13T03:52:03;98125.00;;;22.21;37.39
21300;BME280;10809;49.476;11.016;2023-07-13T03:54:34;98129.91;;;22.17;37.59
21300;BME280;10809;49.476;11.016;2023-07-13T03:57:05;98131.22;;;22.13;37.36
21300;BME280;10809;49.476;11.016;2023-07-13T03:59:38;98128.00;;;22.10;37.45
21300;BME280;10809;49.476;11.016;2023-07-13T04:02:09;98131.16;;;22.05;37.47
21300;BME280;10809;49.476;11.016;2023-07-13T04:04:47;98137.06;;;22.01;37.43
21300;BME280;10809;49.476;11.016;2023-07-13T04:07:17;98138.38;;;21.97;37.58
21300;BME280;10809;49.476;11.016;2023-07-13T04:09:49;98144.09;;;21.94;37.77
21300;BME280;10809;49.476;11.016;2023-07-13T04:12:19;98156.88;;;21.92;37.64
21300;BME280;10809;49.476;11.016;2023-07-13T04:14:50;98158.91;;;21.90;37.95
21300;BME280;10809;49.476;11.016;2023-07-13T04:17:23;98161.78;;;21.88;37.72
21300;BME280;10809;49.476;11.016;2023-07-13T04:19:54;98156.53;;;21.87;37.77
21300;BME280;10809;49.476;11.016;2023-07-13T04:22:24;98155.84;;;21.85;38.03
21300;BME280;10809;49.476;11.016;2023-07-13T04:25:04;98157.84;;;21.83;37.94
21300;BME280;10809;49.476;11.016;2023-07-13T04:27:35;98153.63;;;21.80;38.16
21300;BME280;10809;49.476;11.016;2023-07-13T04:30:12;98152.09;;;21.78;38.09
21300;BME280;10809;49.476;11.016;2023-07-13T04:32:51;98155.94;;;21.75;38.13
21300;BME280;10809;49.476;11.016;2023-07-13T04:35:22;98158.81;;;21.74;37.86
21300;BME280;10809;49.476;11.016;2023-07-13T04:37:58;98166.06;;;21.73;38.02
21300;BME280;10809;49.476;11.016;2023-07-13T04:40:45;98170.75;;;21.71;38.34
21300;BME280;10809;49.476;11.016;2023-07-13T04:43:15;98163.69;;;21.70;37.95
21300;BME280;10809;49.476;11.016;2023-07-13T04:45:46;98169.22;;;21.69;38.11
21300;BME280;10809;49.476;11.016;2023-07-13T04:48:20;98167.53;;;21.68;38.21
21300;BME280;10809;49.476;11.016;2023-07-13T04:50:58;98164.81;;;21.68;38.02
21300;BME280;10809;49.476;11.016;2023-07-13T04:53:30;98168.53;;;21.67;38.28
21300;BME280;10809;49.476;11.016;2023-07-13T04:56:01;98170.22;;;21.68;38.50
21300;BME280;10809;49.476;11.016;2023-07-13T04:58:35;98178.31;;;21.68;38.14
21300;BME280;10809;49.476;11.016;2023-07-13T05:01:06;98178.31;;;21.68;38.39
21300;BME280;10809;49.476;11.016;2023-07-13T05:03:48;98181.69;;;21.70;38.60
21300;BME280;10809;49.476;11.016;2023-07-13T05:06:19;98187.94;;;21.70;38.15
21300;BME280;10809;49.476;11.016;2023-07-13T05:08:49;98181.69;;;21.70;38.22
21300;BME280;10809;49.476;11.016;2023-07-13T05:11:20;98187.09;;;21.70;38.51
21300;BME280;10809;49.476;11.016;2023-07-13T05:13:50;98189.94;;;21.68;38.62
21300;BME280;10809;49.476;11.016;2023-07-13T05:16:24;98199.03;;;21.67;38.20
21300;BME280;10809;49.476;11.016;2023-07-13T05:18:58;98190.25;;;21.65;38.43
21300;BME280;10809;49.476;11.016;2023-07-13T05:21:28;98196.59;;;21.64;38.11
21300;BME280;10809;49.476;11.016;2023-07-13T05:23:59;98198.63;;;21.62;38.58
21300;BME280;10809;49.476;11.016;2023-07-13T05:26:32;98196.25;;;21.59;38.52
21300;BME280;10809;49.476;11.016;2023-07-13T05:29:03;98205.31;;;21.58;38.44
21300;BME280;10809;49.476;11.016;2023-07-13T05:31:43;98206.31;;;21.57;38.38
21300;BME280;10809;49.476;11.016;2023-07-13T05:34:13;98202.78;;;21.57;38.40
21300;BME280;10809;49.476;11.016;2023-07-13T05:36:43;98202.78;;;21.57;38.70
21300;BME280;10809;49.476;11.016;2023-07-13T05:39:14;98206.31;;;21.57;38.53
21300;BME280;10809;49.476;11.016;2023-07-13T05:41:45;98206.16;;;21.59;38.77
21300;BME280;10809;49.476;11.016;2023-07-13T05:44:15;98212.25;;;21.61;38.48
21300;BME280;10809;49.476;11.016;2023-07-13T05:46:46;98210.38;;;21.61;38.47
21300;BME280;10809;49.476;11.016;2023-07-13T05:49:16;98208.38;;;21.63;38.45
21300;BME280;10809;49.476;11.016;2023-07-13T05:51:46;98221.72;;;21.65;38.64
21300;BME280;10809;49.476;11.016;2023-07-13T05:54:20;98220.84;;;21.64;38.64
21300;BME280;10809;49.476;11.016;2023-07-13T05:56:52;98221.72;;;21.65;38.89
21300;BME280;10809;49.476;11.016;2023-07-13T05:59:22;98227.84;;;21.67;38.52
21300;BME280;10809;49.476;11.016;2023-07-13T06:01:59;98221.44;;;21.68;38.73
21300;BME280;10809;49.476;11.016;2023-07-13T06:04:32;98226.66;;;21.69;38.65
21300;BME280;10809;49.476;11.016;2023-07-13T06:07:06;98226.50;;;21.71;38.39
21300;BME280;10809;49.476;11.016;2023-07-13T06:09:37;98224.50;;;21.73;38.54
21300;BME280;10809;49.476;11.016;2023-07-13T06:12:11;98229.59;;;21.76;38.34
21300;BME280;10809;49.476;11.016;2023-07-13T06:14:57;98237.69;;;21.76;38.55
21300;BME280;10809;49.476;11.016;2023-07-13T06:17:28;98237.69;;;21.76;38.48
21300;BME280;10809;49.476;11.016;2023-07-13T06:19:58;98238.69;;;21.75;38.40
21300;BME280;10809;49.476;11.016;2023-07-13T06:22:29;98240.53;;;21.74;38.43
21300;BME280;10809;49.476;11.016;2023-07-13T06:25:06;98242.59;;;21.80;39.06
21300;BME280;10809;49.476;11.016;2023-07-13T06:27:37;98237.47;;;21.95;39.24
21300;BME280;10809;49.476;11.016;2023-07-13T06:30:11;98240.03;;;22.22;39.50
21300;BME280;10809;49.476;11.016;2023-07-13T06:32:45;98237.50;;;22.54;39.48
21300;BME280;10809;49.476;11.016;2023-07-13T06:35:22;98236.16;;;22.91;39.65
21300;BME280;10809;49.476;11.016;2023-07-13T06:37:58;98240.16;;;23.29;39.31
21300;BME280;10809;49.476;11.016;2023-07-13T06:40:29;98239.50;;;23.59;38.70
21300;BME280;10809;49.476;11.016;2023-07-13T06:43:07;98240.38;;;23.84;38.39
21300;BME280;10809;49.476;11.016;2023-07-13T06:45:45;98244.25;;;23.97;37.79
21300;BME280;10809;49.476;11.016;2023-07-13T06:48:18;98249.16;;;24.02;36.98
21300;BME280;10809;49.476;11.016;2023-07-13T06:50:49;98250.53;;;23.98;36.78
21300;BME280;10809;49.476;11.016;2023-07-13T06:53:22;98253.91;;;23.92;37.10
21300;BME280;10809;49.476;11.016;2023-07-13T06:55:55;98257.97;;;23.88;37.10
21300;BME280;10809;49.476;11.016;2023-07-13T06:58:26;98262.03;;;23.84;36.78
21300;BME280;10809;49.476;11.016;2023-07-13T07:01:05;98261.84;;;23.77;36.75
21300;BME280;10809;49.476;11.016;2023-07-13T07:03:36;98262.88;;;23.68;36.86
21300;BME280;10809;49.476;11.016;2023-07-13T07:06:18;98267.22;;;23.61;36.78
21300;BME280;10809;49.476;11.016;2023-07-13T07:08:55;98262.16;;;23.58;37.36
21300;BME280;10809;49.476;11.016;2023-07-13T07:11:26;98274.50;;;23.61;37.36
21300;BME280;10809;49.476;11.016;2023-07-13T07:14:03;98273.00;;;23.66;37.45
21300;BME280;10809;49.476;11.016;2023-07-13T07:16:34;98270.31;;;23.74;37.49
21300;BME280;10809;49.476;11.016;2023-07-13T07:19:10;98268.63;;;23.81;37.42
21300;BME280;10809;49.476;11.016;2023-07-13T07:21:41;98280.44;;;23.88;37.41
21300;BME280;10809;49.476;11.016;2023-07-13T07:24:11;98271.81;;;23.93;37.56
21300;BME280;10809;49.476;11.016;2023-07-13T07:27:00;98283.66;;;24.00;37.42
21300;BME280;10809;49.476;11.016;2023-07-13T07:29:31;98275.88;;;24.05;36.97
21300;BME280;10809;49.476;11.016;2023-07-13T07:32:01;98280.25;;;24.06;36.93
21300;BME280;10809;49.476;11.016;2023-07-13T07:34:38;98288.91;;;24.09;37.09
21300;BME280;10809;49.476;11.016;2023-07-13T07:37:15;98288.22;;;24.15;37.05
21300;BME280;10809;49.476;11.016;2023-07-13T07:39:46;98281.44;;;24.19;36.77
21300;BME280;10809;49.476;11.016;2023-07-13T07:42:17;98281.78;;;24.24;36.64
21300;BME280;10809;49.476;11.016;2023-07-13T07:44:47;98291.09;;;24.22;36.34
21300;BME280;10809;49.476;11.016;2023-07-13T07:47:24;98288.91;;;24.17;36.58
21300;BME280;10809;49.476;11.016;2023-07-13T07:50:00;98302.94;;;24.13;36.46
21300;BME280;10809;49.476;11.016;2023-07-13T07:52:31;98308.88;;;24.08;36.44
21300;BME280;10809;49.476;11.016;2023-07-13T07:55:03;98310.88;;;24.06;36.56
21300;BME280;10809;49.476;11.016;2023-07-13T07:57:37;98311.41;;;24.10;36.78
21300;BME280;10809;49.476;11.016;2023-07-13T08:00:07;98307.84;;;24.17;36.96
21300;BME280;10809;49.476;11.016;2023-07-13T08:02:45;98295.69;;;24.29;36.89
21300;BME280;10809;49.476;11.016;2023-07-13T08:05:15;98305.81;;;24.43;37.11
21300;BME280;10809;49.476;11.016;2023-07-13T08:07:46;98302.38;;;24.57;37.18
21300;BME280;10809;49.476;11.016;2023-07-13T08:10:17;98301.66;;;24.71;36.99
21300;BME280;10809;49.476;11.016;2023-07-13T08:12:47;98304.69;;;24.85;37.01
21300;BME280;10809;49.476;11.016;2023-07-13T08:15:18;98299.56;;;24.98;37.04
21300;BME280;10809;49.476;11.016;2023-07-13T08:17:53;98304.72;;;25.15;36.78
21300;BME280;10809;49.476;11.016;2023-07-13T08:20:39;98315.50;;;25.31;36.57
21300;BME280;10809;49.476;11.016;2023-07-13T08:23:10;98309.34;;;25.45;36.11
21300;BME280;10809;49.476;11.016;2023-07-13T08:25:41;98312.13;;;25.60;36.12
21300;BME280;10809;49.476;11.016;2023-07-13T08:28:11;98311.38;;;25.74;35.61
21300;BME280;10809;49.476;11.016;2023-07-13T08:30:41;98303.28;;;25.88;35.35
21300;BME280;10809;49.476;11.016;2023-07-13T08:33:12;98319.44;;;26.04;34.94
21300;BME280;10809;49.476;11.016;2023-07-13T08:35:49;98318.47;;;26.20;34.65
21300;BME280;10809;49.476;11.016;2023-07-13T08:38:19;98315.63;;;26.36;33.94
21300;BME280;10809;49.476;11.016;2023-07-13T08:40:55;98311.91;;;26.52;34.02
21300;BME280;10809;49.476;11.016;2023-07-13T08:43:30;98303.81;;;26.66;33.73
21300;BME280;10809;49.476;11.016;2023-07-13T08:46:23;98304.00;;;26.79;34.16
21300;BME280;10809;49.476;11.016;2023-07-13T08:48:59;98313.38;;;26.91;33.65
21300;BME280;10809;49.476;11.016;2023-07-13T08:51:44;98319.72;;;26.98;33.09
21300;BME280;10809;49.476;11.016;2023-07-13T08:56:51;98328.19;;;27.03;32.63
21300;BME280;10809;49.476;11.016;2023-07-13T08:59:27;98341.47;;;26.98;32.29
21300;BME280;10809;49.476;11.016;2023-07-13T09:05:36;98330.63;;;26.84;32.43
21300;BME280;10809;49.476;11.016;2023-07-13T09:08:32;98338.66;;;26.77;32.62
21300;BME280;10809;49.476;11.016;2023-07-13T09:11:49;98347.38;;;26.73;32.69
21300;BME280;10809;49.476;11.016;2023-07-13T09:17:28;98341.66;;;26.68;32.37
21300;BME280;10809;49.476;11.016;2023-07-13T09:22:46;98334.34;;;26.68;32.51
21300;BME280;10809;49.476;11.016;2023-07-13T09:25:33;98339.03;;;26.74;32.62
21300;BME280;10809;49.476;11.016;2023-07-13T09:28:44;98335.19;;;26.83;32.21
21300;BME280;10809;49.476;11.016;2023-07-13T09:31:20;98351.06;;;26.94;32.17
21300;BME280;10809;49.476;11.016;2023-07-13T09:33:56;98347.41;;;27.02;31.77
21300;BME280;10809;49.476;11.016;2023-07-13T09:36:33;98335.78;;;27.08;31.57
21300;BME280;10809;49.476;11.016;2023-07-13T09:47:47;98332.09;;;27.30;31.63
21300;BME280;10809;49.476;11.016;2023-07-13T09:50:24;98324.03;;;27.36;31.31
21300;BME280;10809;49.476;11.016;2023-07-13T09:52:57;98330.38;;;27.43;30.80
21300;BME280;10809;49.476;11.016;2023-07-13T09:55:38;98331.06;;;27.45;30.74
21300;BME280;10809;49.476;11.016;2023-07-13T10:00:55;98324.50;;;27.40;30.11
21300;BME280;10809;49.476;11.016;2023-07-13T10:03:59;98323.19;;;27.36;30.64
21300;BME280;10809;49.476;11.016;2023-07-13T10:06:30;98330.91;;;27.32;30.23
21300;BME280;10809;49.476;11.016;2023-07-13T10:09:00;98330.25;;;27.30;29.99
21300;BME280;10809;49.476;11.016;2023-07-13T10:11:35;98319.75;;;27.27;29.99
21300;BME280;10809;49.476;11.016;2023-07-13T10:14:20;98328.91;;;27.26;30.43
21300;BME280;10809;49.476;11.016;2023-07-13T10:17:00;98333.53;;;27.26;30.42
21300;BME280;10809;49.476;11.016;2023-07-13T10:19:34;98331.63;;;27.26;29.89
21300;BME280;10809;49.476;11.016;2023-07-13T10:25:37;98333.78;;;27.16;29.69
21300;BME280;10809;49.476;11.016;2023-07-13T10:28:28;98340.53;;;27.06;29.98
21300;BME280;10809;49.476;11.016;2023-07-13T10:31:01;98336.25;;;26.97;29.37
21300;BME280;10809;49.476;11.016;2023-07-13T10:33:38;98334.44;;;26.89;29.95
21300;BME280;10809;49.476;11.016;2023-07-13T10:36:40;98344.22;;;26.84;29.63
21300;BME280;10809;49.476;11.016;2023-07-13T10:39:21;98344.09;;;26.77;29.85
21300;BME280;10809;49.476;11.016;2023-07-13T10:41:59;98340.72;;;26.75;29.69
21300;BME280;10809;49.476;11.016;2023-07-13T10:44:33;98343.44;;;26.75;29.70
21300;BME280;10809;49.476;11.016;2023-07-13T10:47:16;98343.25;;;26.77;30.13
21300;BME280;10809;49.476;11.016;2023-07-13T10:49:56;98338.28;;;26.80;30.06
21300;BME280;10809;49.476;11.016;2023-07-13T10:52:42;98330.63;;;26.84;30.00
21300;BME280;10809;49.476;11.016;2023-07-13T10:58:33;98340.38;;;26.93;29.79
21300;BME280;10809;49.476;11.016;2023-07-13T11:01:17;98346.00;;;26.91;29.60
21300;BME280;10809;49.476;11.016;2023-07-13T11:04:02;98335.88;;;26.85;29.74
21300;BME280;10809;49.476;11.016;2023-07-13T11:06:43;98329.47;;;26.78;29.59
21300;BME280;10809;49.476;11.016;2023-07-13T11:17:37;98331.19;;;26.57;29.72
21300;BME280;10809;49.476;11.016;2023-07-13T11:25:38;98313.81;;;26.66;29.86
21300;BME280;10809;49.476;11.016;2023-07-13T11:28:18;98316.25;;;26.75;29.97
21300;BME280;10809;49.476;11.016;2023-07-13T11:31:02;98308.88;;;26.84;29.68
21300;BME280;10809;49.476;11.016;2023-07-13T11:36:19;98303.81;;;26.95;29.14
21300;BME280;10809;49.476;11.016;2023-07-13T11:41:54;98308.66;;;27.00;29.24
21300;BME280;10809;49.476;11.016;2023-07-13T11:44:32;98306.81;;;27.00;29.30
21300;BME280;10809;49.476;11.016;2023-07-13T11:47:14;98309.53;;;27.00;29.05
21300;BME280;10809;49.476;11.016;2023-07-13T11:49:54;98313.63;;;26.96;28.85
21300;BME280;10809;49.476;11.016;2023-07-13T11:52:37;98319.44;;;26.93;28.86
21300;BME280;10809;49.476;11.016;2023-07-13T11:55:21;98311.66;;;26.90;29.12
21300;BME280;10809;49.476;11.016;2023-07-13T11:58:03;98316.66;;;26.87;29.25
21300;BME280;10809;49.476;11.016;2023-07-13T12:00:33;98319.09;;;26.82;28.99
21300;BME280;10809;49.476;11.016;2023-07-13T12:03:07;98316.06;;;26.77;28.77
21300;BME280;10809;49.476;11.016;2023-07-13T12:05:55;98322.06;;;26.72;29.18
21300;BME280;10809;49.476;11.016;2023-07-13T12:08:28;98324.31;;;26.69;29.30
21300;BME280;10809;49.476;11.016;2023-07-13T12:11:02;98312.81;;;26.67;29.14
21300;BME280;10809;49.476;11.016;2023-07-13T12:13:38;98304.47;;;26.68;29.17
21300;BME280;10809;49.476;11.016;2023-07-13T12:16:16;98306.81;;;26.71;29.51
21300;BME280;10809;49.476;11.016;2023-07-13T12:18:47;98312.50;;;26.76;29.31
21300;BME280;10809;49.476;11.016;2023-07-13T12:21:27;98307.16;;;26.83;29.44
21300;BME280;10809;49.476;11.016;2023-07-13T12:24:03;98303.69;;;26.89;28.99
21300;BME280;10809;49.476;11.016;2023-07-13T12:26:36;98312.16;;;26.94;29.21
21300;BME280;10809;49.476;11.016;2023-07-13T12:29:07;98315.34;;;26.97;28.54
21300;BME280;10809;49.476;11.016;2023-07-13T12:31:47;98317.22;;;26.97;29.02
21300;BME280;10809;49.476;11.016;2023-07-13T12:34:21;98319.25;;;26.95;28.75
21300;BME280;10809;49.476;11.016;2023-07-13T12:37:00;98313.56;;;26.90;28.70
21300;BME280;10809;49.476;11.016;2023-07-13T12:39:48;98308.31;;;26.88;28.71
21300;BME280;10809;49.476;11.016;2023-07-13T12:42:31;98303.25;;;26.85;28.80
21300;BME280;10809;49.476;11.016;2023-07-13T12:47:42;98307.53;;;26.80;29.01
21300;BME280;10809;49.476;11.016;2023-07-13T12:50:19;98314.88;;;26.79;29.12
21300;BME280;10809;49.476;11.016;2023-07-13T12:53:01;98312.31;;;26.78;28.97
21300;BME280;10809;49.476;11.016;2023-07-13T12:55:48;98311.50;;;26.77;28.76
21300;BME280;10809;49.476;11.016;2023-07-13T12:58:27;98307.75;;;26.78;28.84
21300;BME280;10809;49.476;11.016;2023-07-13T13:01:00;98315.50;;;26.81;29.29
21300;BME280;10809;49.476;11.016;2023-07-13T13:03:46;98305.97;;;26.85;29.08
21300;BME280;10809;49.476;11.016;2023-07-13T13:11:44;98296.00;;;27.07;29.04
21300;BME280;10809;49.476;11.016;2023-07-13T13:14:17;98295.72;;;27.16;28.94
21300;BME280;10809;49.476;11.016;2023-07-13T13:16:49;98297.50;;;27.24;28.56
21300;BME280;10809;49.476;11.016;2023-07-13T13:19:24;98299.47;;;27.30;28.76
21300;BME280;10809;49.476;11.016;2023-07-13T13:22:04;98297.03;;;27.35;28.89
21300;BME280;10809;49.476;11.016;2023-07-13T13:24:47;98304.22;;;27.42;28.51
21300;BME280;10809;49.476;11.016;2023-07-13T13:27:23;98297.16;;;27.48;28.46
21300;BME280;10809;49.476;11.016;2023-07-13T13:29:54;98302.03;;;27.52;28.25
21300;BME280;10809;49.476;11.016;2023-07-13T13:32:25;98292.19;;;27.51;28.41
21300;BME280;10809;49.476;11.016;2023-07-13T13:35:02;98293.06;;;27.52;28.63
21300;BME280;10809;49.476;11.016;2023-07-13T13:37:32;98281.97;;;27.53;28.18
21300;BME280;10809;49.476;11.016;2023-07-13T13:40:16;98289.75;;;27.56;28.46
21300;BME280;10809;49.476;11.016;2023-07-13T13:42:50;98288.31;;;27.60;28.33
21300;BME280;10809;49.476;11.016;2023-07-13T13:48:01;98291.22;;;27.59;27.92
21300;BME280;10809;49.476;11.016;2023-07-13T13:50:32;98288.25;;;27.54;27.86
21300;BME280;10809;49.476;11.016;2023-07-13T13:53:03;98289.47;;;27.51;28.10
21300;BME280;10809;49.476;11.016;2023-07-13T13:55:34;98277.75;;;27.51;28.04
21300;BME280;10809;49.476;11.016;2023-07-13T13:58:05;98292.00;;;27.53;27.86
21300;BME280;10809;49.476;11.016;2023-07-13T14:00:37;98292.19;;;27.51;28.22
21300;BME280;10809;49.476;11.016;2023-07-13T14:03:20;98294.06;;;27.51;27.87
21300;BME280;10809;49.476;11.016;2023-07-13T14:05:58;98299.69;;;27.49;28.17
21300;BME280;10809;49.476;11.016;2023-07-13T14:08:28;98292.78;;;27.47;28.13
21300;BME280;10809;49.476;11.016;2023-07-13T14:10:59;98298.22;;;27.47;28.05
21300;BME280;10809;49.476;11.016;2023-07-13T14:13:36;98288.38;;;27.46;27.70
21300;BME280;10809;49.476;11.016;2023-07-13T14:16:20;98297.75;;;27.43;28.01
21300;BME280;10809;49.476;11.016;2023-07-13T14:18:51;98298.13;;;27.40;27.35
21300;BME280;10809;49.476;11.016;2023-07-13T14:21:22;98295.97;;;27.36;27.44
21300;BME280;10809;49.476;11.016;2023-07-13T14:23:52;98297.22;;;27.33;27.77
21300;BME280;10809;49.476;11.016;2023-07-13T14:26:25;98285.50;;;27.33;27.78
21300;BME280;10809;49.476;11.016;2023-07-13T14:28:56;98282.38;;;27.36;27.92
21300;BME280;10809;49.476;11.016;2023-07-13T14:31:28;98284.34;;;27.42;27.98
21300;BME280;10809;49.476;11.016;2023-07-13T14:34:01;98286.94;;;27.50;28.07
21300;BME280;10809;49.476;11.016;2023-07-13T14:36:36;98296.88;;;27.57;27.61